createdAt,value
2017-10-20T00:00:10.148Z,1003.61
2017-10-20T00:01:10.130Z,1003.61
2017-10-20T00:02:10.102Z,1003.71
2017-10-20T00:03:10.077Z,1003.72
2017-10-20T00:04:10.060Z,1003.73
2017-10-20T00:05:10.039Z,1003.72
2017-10-20T00:06:10.017Z,1003.76
2017-10-20T00:07:09.994Z,1003.71
2017-10-20T00:08:09.972Z,1003.72
2017-10-20T00:09:09.950Z,1003.74
2017-10-20T00:10:09.940Z,1003.72
2017-10-20T00:11:09.916Z,1003.68
2017-10-20T00:12:09.888Z,1003.69
2017-10-20T00:13:09.865Z,1003.7
2017-10-20T00:14:09.842Z,1003.66
2017-10-20T00:15:09.820Z,1003.69
2017-10-20T00:16:09.801Z,1003.67
2017-10-20T00:17:09.781Z,1003.68
2017-10-20T00:18:09.757Z,1003.66
2017-10-20T00:19:09.734Z,1003.68
2017-10-20T00:20:09.717Z,1003.69
2017-10-20T00:21:09.692Z,1003.69
2017-10-20T00:22:09.670Z,1003.64
2017-10-20T00:23:09.645Z,1003.65
2017-10-20T00:24:09.630Z,1003.66
2017-10-20T00:25:09.610Z,1003.62
2017-10-20T00:26:09.580Z,1003.61
2017-10-20T00:27:09.560Z,1003.59
2017-10-20T00:28:09.539Z,1003.6
2017-10-20T00:29:09.517Z,1003.6
2017-10-20T00:30:09.496Z,1003.62
2017-10-20T00:31:09.474Z,1003.63
2017-10-20T00:32:09.449Z,1003.68
2017-10-20T00:33:09.427Z,1003.73
2017-10-20T00:34:09.408Z,1003.7
2017-10-20T00:35:09.389Z,1003.73
2017-10-20T00:36:09.370Z,1003.7
2017-10-20T00:37:09.346Z,1003.66
2017-10-20T00:38:09.321Z,1003.65
2017-10-20T00:39:09.301Z,1003.67
2017-10-20T00:40:09.283Z,1003.64
2017-10-20T00:41:09.255Z,1003.71
2017-10-20T00:42:09.238Z,1003.73
2017-10-20T00:43:09.215Z,1003.74
2017-10-20T00:44:09.192Z,1003.77
2017-10-20T00:45:09.175Z,1003.77
2017-10-20T00:46:09.152Z,1003.78
2017-10-20T00:47:09.129Z,1003.74
2017-10-20T00:48:09.104Z,1003.8
2017-10-20T00:49:09.088Z,1003.79
2017-10-20T00:50:09.059Z,1003.76
2017-10-20T00:51:09.045Z,1003.78
2017-10-20T00:52:09.017Z,1003.76
2017-10-20T00:53:08.996Z,1003.79
2017-10-20T00:54:08.974Z,1003.76
2017-10-20T00:55:08.954Z,1003.76
2017-10-20T00:56:08.927Z,1003.73
2017-10-20T00:57:08.907Z,1003.71
2017-10-20T00:58:08.891Z,1003.75
2017-10-20T00:59:08.865Z,1003.73
2017-10-20T01:00:08.844Z,1003.74
2017-10-20T01:01:08.832Z,1003.75
2017-10-20T01:02:08.797Z,1003.8
2017-10-20T01:03:08.780Z,1003.77
2017-10-20T01:04:08.757Z,1003.75
2017-10-20T01:05:08.734Z,1003.7
2017-10-20T01:06:08.713Z,1003.72
2017-10-20T01:07:08.690Z,1003.74
2017-10-20T01:08:08.668Z,1003.74
2017-10-20T01:09:08.646Z,1003.64
2017-10-20T01:10:08.627Z,1003.63
2017-10-20T01:11:08.606Z,1003.59
2017-10-20T01:12:08.583Z,1003.55
2017-10-20T01:13:08.560Z,1003.52
2017-10-20T01:14:08.537Z,1003.51
2017-10-20T01:15:08.515Z,1003.55
2017-10-20T01:16:08.496Z,1003.52
2017-10-20T01:17:08.475Z,1003.54
2017-10-20T01:18:08.450Z,1003.54
2017-10-20T01:19:08.431Z,1003.62
2017-10-20T01:20:08.432Z,1003.65
2017-10-20T01:21:08.386Z,1003.65
2017-10-20T01:22:08.379Z,1003.7
2017-10-20T01:23:08.342Z,1003.7
2017-10-20T01:24:08.320Z,1003.7
2017-10-20T01:25:08.299Z,1003.72
2017-10-20T01:26:08.280Z,1003.72
2017-10-20T01:27:08.255Z,1003.72
2017-10-20T01:28:08.239Z,1003.7
2017-10-20T01:29:08.213Z,1003.67
2017-10-20T01:30:08.190Z,1003.68
2017-10-20T01:31:08.168Z,1003.71
2017-10-20T01:32:08.147Z,1003.71
2017-10-20T01:33:08.127Z,1003.77
2017-10-20T01:34:08.102Z,1003.7
2017-10-20T01:35:08.089Z,1003.68
2017-10-20T01:36:08.060Z,1003.67
2017-10-20T01:37:08.038Z,1003.73
2017-10-20T01:38:08.016Z,1003.78
2017-10-20T01:39:07.995Z,1003.7
2017-10-20T01:40:07.986Z,1003.67
2017-10-20T01:41:07.952Z,1003.68
2017-10-20T01:42:07.927Z,1003.7
2017-10-20T01:43:07.907Z,1003.7
2017-10-20T01:44:07.886Z,1003.7
2017-10-20T01:45:07.865Z,1003.66
2017-10-20T01:46:07.841Z,1003.67
2017-10-20T01:47:07.823Z,1003.66
2017-10-20T01:48:07.799Z,1003.66
2017-10-20T01:49:07.775Z,1003.65
2017-10-20T01:50:07.760Z,1003.61
2017-10-20T01:51:07.733Z,1003.66
2017-10-20T01:52:07.710Z,1003.6
2017-10-20T01:53:07.689Z,1003.6
2017-10-20T01:54:07.669Z,1003.61
2017-10-20T01:55:07.650Z,1003.54
2017-10-20T01:56:07.627Z,1003.6
2017-10-20T01:57:07.602Z,1003.61
2017-10-20T01:58:07.581Z,1003.63
2017-10-20T01:59:07.556Z,1003.59
2017-10-20T02:00:07.551Z,1003.66
2017-10-20T02:01:07.516Z,1003.58
2017-10-20T02:02:07.495Z,1003.56
2017-10-20T02:03:07.472Z,1003.57
2017-10-20T02:04:07.450Z,1003.56
2017-10-20T02:05:07.429Z,1003.46
2017-10-20T02:06:07.679Z,1003.39
2017-10-20T02:07:07.389Z,1003.34
2017-10-20T02:08:07.646Z,1003.32
2017-10-20T02:09:07.342Z,1003.24
2017-10-20T02:10:07.319Z,1003.33
2017-10-20T02:11:07.298Z,1003.43
2017-10-20T02:12:07.273Z,1003.4
2017-10-20T02:13:07.253Z,1003.4
2017-10-20T02:14:07.230Z,1003.37
2017-10-20T02:15:07.209Z,1003.32
2017-10-20T02:16:07.187Z,1003.33
2017-10-20T02:17:07.171Z,1003.32
2017-10-20T02:18:07.143Z,1003.29
2017-10-20T02:19:07.125Z,1003.19
2017-10-20T02:20:07.101Z,1003.13
2017-10-20T02:21:07.080Z,1003.09
2017-10-20T02:22:07.057Z,1002.98
2017-10-20T02:23:07.037Z,1002.99
2017-10-20T02:24:07.015Z,1003.07
2017-10-20T02:25:06.992Z,1003.13
2017-10-20T02:26:06.971Z,1003.02
2017-10-20T02:27:06.948Z,1003.04
2017-10-20T02:28:06.927Z,1003.05
2017-10-20T02:29:06.906Z,1003.02
2017-10-20T02:30:06.883Z,1003.09
2017-10-20T02:31:06.864Z,1003.17
2017-10-20T02:32:06.839Z,1003.26
2017-10-20T02:33:06.818Z,1003.3
2017-10-20T02:34:06.799Z,1003.37
2017-10-20T02:35:06.777Z,1003.36
2017-10-20T02:36:06.752Z,1003.39
2017-10-20T02:37:06.730Z,1003.32
2017-10-20T02:38:06.708Z,1003.39
2017-10-20T02:39:06.685Z,1003.31
2017-10-20T02:40:06.664Z,1003.29
2017-10-20T02:41:06.644Z,1003.24
2017-10-20T02:42:06.618Z,1003.27
2017-10-20T02:43:06.603Z,1003.22
2017-10-20T02:44:06.577Z,1003.22
2017-10-20T02:45:06.556Z,1003.21
2017-10-20T02:46:06.533Z,1003.18
2017-10-20T02:47:06.511Z,1003.17
2017-10-20T02:48:06.491Z,1003.19
2017-10-20T02:49:06.470Z,1003.19
2017-10-20T02:50:06.450Z,1003.19
2017-10-20T02:51:06.426Z,1003.16
2017-10-20T02:52:06.404Z,1003.13
2017-10-20T02:53:06.381Z,1003.15
2017-10-20T02:54:06.360Z,1003.15
2017-10-20T02:55:06.338Z,1003.21
2017-10-20T02:56:06.318Z,1003.17
2017-10-20T02:57:06.294Z,1003.21
2017-10-20T02:58:06.274Z,1003.19
2017-10-20T02:59:06.252Z,1003.25
2017-10-20T03:00:06.228Z,1003.33
2017-10-20T03:01:06.207Z,1003.34
2017-10-20T03:02:06.186Z,1003.34
2017-10-20T03:03:06.162Z,1003.32
2017-10-20T03:04:06.142Z,1003.32
2017-10-20T03:05:06.121Z,1003.33
2017-10-20T03:06:06.099Z,1003.32
2017-10-20T03:07:06.076Z,1003.34
2017-10-20T03:08:06.054Z,1003.34
2017-10-20T03:09:06.036Z,1003.3
2017-10-20T03:10:06.010Z,1003.22
2017-10-20T03:11:05.991Z,1003.26
2017-10-20T03:12:05.967Z,1003.24
2017-10-20T03:13:05.944Z,1003.23
2017-10-20T03:14:05.923Z,1003.2
2017-10-20T03:15:05.901Z,1003.16
2017-10-20T03:16:05.883Z,1003.06
2017-10-20T03:17:05.857Z,1003.08
2017-10-20T03:18:05.836Z,1003.05
2017-10-20T03:19:05.815Z,1003.08
2017-10-20T03:20:05.792Z,1003.01
2017-10-20T03:21:05.768Z,1002.99
2017-10-20T03:22:05.749Z,1003.04
2017-10-20T03:23:05.726Z,1003.15
2017-10-20T03:24:05.709Z,1003.02
2017-10-20T03:25:05.685Z,1002.94
2017-10-20T03:26:05.663Z,1002.92
2017-10-20T03:27:05.638Z,1003.01
2017-10-20T03:28:05.618Z,1002.95
2017-10-20T03:29:05.596Z,1002.87
2017-10-20T03:30:05.580Z,1002.84
2017-10-20T03:31:05.551Z,1002.8
2017-10-20T03:32:05.531Z,1002.73
2017-10-20T03:33:05.514Z,1002.76
2017-10-20T03:34:05.491Z,1002.76
2017-10-20T03:35:05.466Z,1002.77
2017-10-20T03:36:05.442Z,1002.81
2017-10-20T03:37:05.423Z,1002.85
2017-10-20T03:38:05.403Z,1002.79
2017-10-20T03:39:05.379Z,1002.77
2017-10-20T03:40:05.358Z,1002.76
2017-10-20T03:41:05.332Z,1002.67
2017-10-20T03:42:05.312Z,1002.51
2017-10-20T03:43:05.289Z,1002.41
2017-10-20T03:44:05.269Z,1002.4
2017-10-20T03:45:05.245Z,1002.34
2017-10-20T03:46:05.223Z,1002.35
2017-10-20T03:47:05.201Z,1002.32
2017-10-20T03:48:05.177Z,1002.25
2017-10-20T03:49:05.159Z,1002.38
2017-10-20T03:50:05.139Z,1002.52
2017-10-20T03:51:05.120Z,1002.48
2017-10-20T03:52:05.090Z,1002.41
2017-10-20T03:53:05.068Z,1002.43
2017-10-20T03:54:05.045Z,1002.48
2017-10-20T03:55:05.025Z,1002.51
2017-10-20T03:56:05.003Z,1002.49
2017-10-20T03:57:04.981Z,1002.53
2017-10-20T03:58:04.959Z,1002.53
2017-10-20T03:59:04.951Z,1002.58
2017-10-20T04:00:04.915Z,1002.62
2017-10-20T04:01:04.902Z,1002.62
2017-10-20T04:02:04.869Z,1002.58
2017-10-20T04:03:04.854Z,1002.53
2017-10-20T04:04:04.826Z,1002.51
2017-10-20T04:05:04.805Z,1002.49
2017-10-20T04:06:04.781Z,1002.53
2017-10-20T04:07:04.759Z,1002.51
2017-10-20T04:08:04.737Z,1002.52
2017-10-20T04:09:04.716Z,1002.56
2017-10-20T04:10:04.694Z,1002.54
2017-10-20T04:11:04.678Z,1002.54
2017-10-20T04:12:04.650Z,1002.5
2017-10-20T04:13:04.627Z,1002.52
2017-10-20T04:14:04.607Z,1002.5
2017-10-20T04:15:04.583Z,1002.5
2017-10-20T04:16:04.561Z,1002.49
2017-10-20T04:17:04.542Z,1002.49
2017-10-20T04:18:04.519Z,1002.47
2017-10-20T04:19:04.494Z,1002.42
2017-10-20T04:20:04.471Z,1002.44
2017-10-20T04:21:04.447Z,1002.37
2017-10-20T04:22:04.428Z,1002.33
2017-10-20T04:23:04.407Z,1002.31
2017-10-20T04:24:04.383Z,1002.33
2017-10-20T04:25:04.362Z,1002.32
2017-10-20T04:26:04.340Z,1002.32
2017-10-20T04:27:04.318Z,1002.36
2017-10-20T04:28:04.293Z,1002.39
2017-10-20T04:29:04.273Z,1002.38
2017-10-20T04:30:04.252Z,1002.34
2017-10-20T04:31:04.232Z,1002.33
2017-10-20T04:32:04.210Z,1002.37
2017-10-20T04:33:04.185Z,1002.39
2017-10-20T04:34:04.164Z,1002.38
2017-10-20T04:35:04.142Z,1002.35
2017-10-20T04:36:04.120Z,1002.34
2017-10-20T04:37:04.095Z,1002.33
2017-10-20T04:38:04.075Z,1002.37
2017-10-20T04:39:04.049Z,1002.36
2017-10-20T04:40:04.030Z,1002.36
2017-10-20T04:41:04.010Z,1002.43
2017-10-20T04:42:03.987Z,1002.45
2017-10-20T04:43:03.964Z,1002.44
2017-10-20T04:44:03.943Z,1002.45
2017-10-20T04:45:03.921Z,1002.44
2017-10-20T04:46:03.904Z,1002.42
2017-10-20T04:47:03.874Z,1002.41
2017-10-20T04:48:03.854Z,1002.42
2017-10-20T04:49:03.834Z,1002.39
2017-10-20T04:50:03.811Z,1002.37
2017-10-20T04:51:03.788Z,1002.36
2017-10-20T04:52:03.767Z,1002.39
2017-10-20T04:53:03.744Z,1002.41
2017-10-20T04:54:03.720Z,1002.41
2017-10-20T04:55:03.702Z,1002.43
2017-10-20T04:56:03.677Z,1002.47
2017-10-20T04:57:03.659Z,1002.42
2017-10-20T04:58:03.633Z,1002.39
2017-10-20T04:59:03.613Z,1002.37
2017-10-20T05:00:03.589Z,1002.37
2017-10-20T05:01:03.567Z,1002.43
2017-10-20T05:02:03.544Z,1002.42
2017-10-20T05:03:03.524Z,1002.43
2017-10-20T05:04:03.503Z,1002.38
2017-10-20T05:05:03.486Z,1002.39
2017-10-20T05:06:03.462Z,1002.39
2017-10-20T05:07:03.439Z,1002.32
2017-10-20T05:08:03.416Z,1002.33
2017-10-20T05:09:03.391Z,1002.31
2017-10-20T05:10:03.369Z,1002.36
2017-10-20T05:11:03.353Z,1002.39
2017-10-20T05:12:03.324Z,1002.46
2017-10-20T05:13:03.303Z,1002.49
2017-10-20T05:14:03.283Z,1002.47
2017-10-20T05:15:03.266Z,1002.47
2017-10-20T05:16:03.235Z,1002.41
2017-10-20T05:17:03.223Z,1002.47
2017-10-20T05:18:03.226Z,1002.37
2017-10-20T05:19:03.172Z,1002.4
2017-10-20T05:20:03.147Z,1002.36
2017-10-20T05:21:03.130Z,1002.34
2017-10-20T05:22:03.107Z,1002.37
2017-10-20T05:23:03.084Z,1002.37
2017-10-20T05:24:03.064Z,1002.36
2017-10-20T05:25:03.040Z,1002.37
2017-10-20T05:26:03.023Z,1002.47
2017-10-20T05:27:02.998Z,1002.54
2017-10-20T05:28:02.971Z,1002.54
2017-10-20T05:29:02.952Z,1002.61
2017-10-20T05:30:02.930Z,1002.61
2017-10-20T05:31:02.917Z,1002.53
2017-10-20T05:32:02.887Z,1002.48
2017-10-20T05:33:02.864Z,1002.42
2017-10-20T05:34:02.843Z,1002.32
2017-10-20T05:35:02.821Z,1002.43
2017-10-20T05:36:02.804Z,1002.38
2017-10-20T05:37:02.783Z,1002.43
2017-10-20T05:38:02.758Z,1002.46
2017-10-20T05:39:02.734Z,1002.37
2017-10-20T05:40:02.714Z,1002.35
2017-10-20T05:41:02.698Z,1002.38
2017-10-20T05:42:02.680Z,1002.43
2017-10-20T05:43:02.647Z,1002.46
2017-10-20T05:44:02.623Z,1002.42
2017-10-20T05:45:02.604Z,1002.42
2017-10-20T05:46:02.585Z,1002.41
2017-10-20T05:47:02.560Z,1002.43
2017-10-20T05:48:02.537Z,1002.44
2017-10-20T05:49:02.517Z,1002.5
2017-10-20T05:50:02.493Z,1002.44
2017-10-20T05:51:02.470Z,1002.4
2017-10-20T05:52:02.449Z,1002.4
2017-10-20T05:53:02.427Z,1002.43
2017-10-20T05:54:02.405Z,1002.4
2017-10-20T05:55:02.383Z,1002.38
2017-10-20T05:56:02.363Z,1002.39
2017-10-20T05:57:02.337Z,1002.4
2017-10-20T05:58:02.316Z,1002.44
2017-10-20T05:59:02.305Z,1002.47
2017-10-20T06:00:02.272Z,1002.44
2017-10-20T06:01:02.251Z,1002.44
2017-10-20T06:02:02.230Z,1002.46
2017-10-20T06:03:02.205Z,1002.46
2017-10-20T06:04:02.183Z,1002.4
2017-10-20T06:05:02.164Z,1002.43
2017-10-20T06:06:02.141Z,1002.47
2017-10-20T06:07:02.120Z,1002.48
2017-10-20T06:08:02.094Z,1002.48
2017-10-20T06:09:02.073Z,1002.51
2017-10-20T06:10:02.052Z,1002.55
2017-10-20T06:11:02.029Z,1002.51
2017-10-20T06:12:02.006Z,1002.48
2017-10-20T06:13:01.985Z,1002.54
2017-10-20T06:14:01.965Z,1002.48
2017-10-20T06:15:01.941Z,1002.53
2017-10-20T06:16:01.919Z,1002.53
2017-10-20T06:17:01.898Z,1002.58
2017-10-20T06:18:01.872Z,1002.63
2017-10-20T06:19:01.851Z,1002.67
2017-10-20T06:20:01.831Z,1002.69
2017-10-20T06:21:01.806Z,1002.69
2017-10-20T06:22:01.785Z,1002.73
2017-10-20T06:23:01.767Z,1002.75
2017-10-20T06:24:01.741Z,1002.78
2017-10-20T06:25:01.719Z,1002.78
2017-10-20T06:26:01.695Z,1002.76
2017-10-20T06:27:01.673Z,1002.67
2017-10-20T06:28:01.660Z,1002.67
2017-10-20T06:29:01.629Z,1002.68
2017-10-20T06:30:01.607Z,1002.7
2017-10-20T06:31:01.584Z,1002.64
2017-10-20T06:32:01.565Z,1002.64
2017-10-20T06:33:01.540Z,1002.55
2017-10-20T06:34:01.517Z,1002.67
2017-10-20T06:35:01.500Z,1002.65
2017-10-20T06:36:01.472Z,1002.59
2017-10-20T06:37:01.603Z,1002.59
2017-10-20T06:38:01.432Z,1002.61
2017-10-20T06:39:01.405Z,1002.66
2017-10-20T06:40:01.381Z,1002.59
2017-10-20T06:41:01.362Z,1002.69
2017-10-20T06:42:01.337Z,1002.76
2017-10-20T06:43:01.317Z,1002.82
2017-10-20T06:44:01.292Z,1002.69
2017-10-20T06:45:01.272Z,1002.72
2017-10-20T06:46:01.247Z,1002.76
2017-10-20T06:47:01.234Z,1002.94
2017-10-20T06:48:01.206Z,1002.9
2017-10-20T06:49:01.181Z,1002.83
2017-10-20T06:50:01.160Z,1002.8
2017-10-20T06:51:01.136Z,1002.85
2017-10-20T06:52:01.116Z,1002.85
2017-10-20T06:53:01.091Z,1002.81
2017-10-20T06:54:01.067Z,1002.8
2017-10-20T06:55:01.060Z,1002.85
2017-10-20T06:56:01.025Z,1002.86
2017-10-20T06:57:01.006Z,1002.79
2017-10-20T06:58:00.980Z,1002.85
2017-10-20T06:59:00.956Z,1002.88
2017-10-20T07:00:00.936Z,1002.85
2017-10-20T07:01:00.920Z,1002.83
2017-10-20T07:02:00.885Z,1002.9
2017-10-20T07:03:00.866Z,1002.95
2017-10-20T07:04:00.848Z,1003
2017-10-20T07:05:00.822Z,1002.96
2017-10-20T07:06:00.800Z,1003.02
2017-10-20T07:07:00.776Z,1002.92
2017-10-20T07:08:00.757Z,1002.92
2017-10-20T07:09:00.733Z,1002.94
2017-10-20T07:10:00.710Z,1002.87
2017-10-20T07:11:00.687Z,1002.78
2017-10-20T07:12:00.665Z,1002.78
2017-10-20T07:13:00.642Z,1002.78
2017-10-20T07:14:00.620Z,1002.82
2017-10-20T07:15:00.599Z,1002.8
2017-10-20T07:16:00.575Z,1002.82
2017-10-20T07:17:00.551Z,1002.86
2017-10-20T07:18:00.532Z,1002.89
2017-10-20T07:19:00.509Z,1002.87
2017-10-20T07:20:00.486Z,1002.84
2017-10-20T07:21:00.463Z,1002.8
2017-10-20T07:22:00.443Z,1002.82
2017-10-20T07:23:00.417Z,1002.83
2017-10-20T07:24:00.396Z,1002.79
2017-10-20T07:25:00.374Z,1002.77
2017-10-20T07:26:00.350Z,1002.79
2017-10-20T07:27:00.327Z,1002.78
2017-10-20T07:28:00.306Z,1002.75
2017-10-20T07:29:00.282Z,1002.74
2017-10-20T07:30:00.264Z,1002.78
2017-10-20T07:31:00.238Z,1002.74
2017-10-20T07:32:00.219Z,1002.72
2017-10-20T07:33:00.193Z,1002.72
2017-10-20T07:34:00.171Z,1002.74
2017-10-20T07:35:00.151Z,1002.69
2017-10-20T07:36:00.126Z,1002.64
2017-10-20T07:37:00.107Z,1002.68
2017-10-20T07:38:00.083Z,1002.67
2017-10-20T07:39:00.060Z,1002.67
2017-10-20T07:40:00.037Z,1002.68
2017-10-20T07:41:00.016Z,1002.65
2017-10-20T07:41:59.993Z,1002.63
2017-10-20T07:42:59.974Z,1002.6
2017-10-20T07:43:59.947Z,1002.66
2017-10-20T07:44:59.927Z,1002.65
2017-10-20T07:45:59.903Z,1002.62
2017-10-20T07:46:59.892Z,1002.72
2017-10-20T07:47:59.862Z,1002.65
2017-10-20T07:48:59.836Z,1002.54
2017-10-20T07:49:59.816Z,1002.56
2017-10-20T07:50:59.791Z,1002.59
2017-10-20T07:51:59.766Z,1002.57
2017-10-20T07:52:59.747Z,1002.61
2017-10-20T07:53:59.726Z,1002.61
2017-10-20T07:54:59.708Z,1002.6
2017-10-20T07:55:59.685Z,1002.59
2017-10-20T07:56:59.658Z,1002.57
2017-10-20T07:57:59.638Z,1002.65
2017-10-20T07:58:59.613Z,1002.56
2017-10-20T07:59:59.591Z,1002.56
2017-10-20T08:00:59.569Z,1002.57
2017-10-20T08:01:59.548Z,1002.55
2017-10-20T08:02:59.524Z,1002.58
2017-10-20T08:03:59.506Z,1002.53
2017-10-20T08:04:59.480Z,1002.53
2017-10-20T08:05:59.462Z,1002.49
2017-10-20T08:06:59.438Z,1002.5
2017-10-20T08:07:59.420Z,1002.51
2017-10-20T08:08:59.391Z,1002.5
2017-10-20T08:09:59.373Z,1002.48
2017-10-20T08:10:59.349Z,1002.51
2017-10-20T08:11:59.328Z,1002.48
2017-10-20T08:12:59.309Z,1002.48
2017-10-20T08:13:59.285Z,1002.47
2017-10-20T08:14:59.262Z,1002.41
2017-10-20T08:15:59.247Z,1002.48
2017-10-20T08:16:59.217Z,1002.48
2017-10-20T08:17:59.196Z,1002.32
2017-10-20T08:18:59.178Z,1002.35
2017-10-20T08:19:59.152Z,1002.39
2017-10-20T08:20:59.128Z,1002.44
2017-10-20T08:21:59.106Z,1002.42
2017-10-20T08:22:59.084Z,1002.44
2017-10-20T08:23:59.067Z,1002.47
2017-10-20T08:24:59.044Z,1002.44
2017-10-20T08:25:59.019Z,1002.46
2017-10-20T08:26:59.004Z,1002.51
2017-10-20T08:27:58.979Z,1002.53
2017-10-20T08:28:58.954Z,1002.45
2017-10-20T08:29:58.932Z,1002.48
2017-10-20T08:30:58.911Z,1002.5
2017-10-20T08:31:58.901Z,1002.55
2017-10-20T08:32:58.867Z,1002.5
2017-10-20T08:33:58.845Z,1002.46
2017-10-20T08:34:58.828Z,1002.45
2017-10-20T08:35:58.802Z,1002.48
2017-10-20T08:36:58.780Z,1002.52
2017-10-20T08:37:58.758Z,1002.55
2017-10-20T08:38:58.737Z,1002.57
2017-10-20T08:39:58.716Z,1002.53
2017-10-20T08:40:58.695Z,1002.55
2017-10-20T08:41:58.671Z,1002.56
2017-10-20T08:42:58.653Z,1002.55
2017-10-20T08:43:58.629Z,1002.51
2017-10-20T08:44:58.627Z,1002.53
2017-10-20T08:45:58.592Z,1002.55
2017-10-20T08:46:58.570Z,1002.57
2017-10-20T08:47:58.541Z,1002.57
2017-10-20T08:48:58.519Z,1002.61
2017-10-20T08:49:58.500Z,1002.64
2017-10-20T08:50:58.476Z,1002.63
2017-10-20T08:51:58.455Z,1002.63
2017-10-20T08:52:58.431Z,1002.59
2017-10-20T08:53:58.761Z,1002.58
2017-10-20T08:54:58.390Z,1002.56
2017-10-20T08:55:58.369Z,1002.53
2017-10-20T08:56:58.347Z,1002.58
2017-10-20T08:57:58.339Z,1002.6
2017-10-20T08:58:58.314Z,1002.58
2017-10-20T08:59:58.292Z,1002.55
2017-10-20T09:00:58.266Z,1002.57
2017-10-20T09:01:58.239Z,1002.55
2017-10-20T09:02:58.228Z,1002.59
2017-10-20T09:03:58.194Z,1002.61
2017-10-20T09:04:58.172Z,1002.58
2017-10-20T09:05:58.156Z,1002.59
2017-10-20T09:06:58.130Z,1002.62
2017-10-20T09:07:58.128Z,1002.61
2017-10-20T09:08:58.088Z,1002.69
2017-10-20T09:09:58.060Z,1002.71
2017-10-20T09:10:58.038Z,1002.77
2017-10-20T09:11:58.021Z,1002.79
2017-10-20T09:12:57.993Z,1002.87
2017-10-20T09:13:57.974Z,1002.88
2017-10-20T09:14:57.955Z,1002.91
2017-10-20T09:15:57.928Z,1002.9
2017-10-20T09:16:57.907Z,1002.9
2017-10-20T09:17:57.886Z,1002.83
2017-10-20T09:18:57.866Z,1002.8
2017-10-20T09:19:57.841Z,1002.8
2017-10-20T09:20:57.817Z,1002.82
2017-10-20T09:21:57.799Z,1002.81
2017-10-20T09:22:57.773Z,1002.84
2017-10-20T09:23:57.753Z,1002.78
2017-10-20T09:24:57.728Z,1002.94
2017-10-20T09:25:57.708Z,1002.92
2017-10-20T09:26:57.688Z,1002.97
2017-10-20T09:27:57.663Z,1003.02
2017-10-20T09:28:57.640Z,1002.95
2017-10-20T09:29:57.634Z,1002.88
2017-10-20T09:30:57.597Z,1002.83
2017-10-20T09:31:57.578Z,1002.84
2017-10-20T09:32:57.566Z,1002.8
2017-10-20T09:33:57.531Z,1002.81
2017-10-20T09:34:57.512Z,1002.68
2017-10-20T09:35:57.493Z,1002.72
2017-10-20T09:36:57.465Z,1002.55
2017-10-20T09:37:57.441Z,1002.43
2017-10-20T09:38:57.420Z,1002.4
2017-10-20T09:39:57.399Z,1002.41
2017-10-20T09:40:57.376Z,1002.45
2017-10-20T09:41:57.356Z,1002.45
2017-10-20T09:42:57.329Z,1002.54
2017-10-20T09:43:57.310Z,1002.59
2017-10-20T09:44:57.287Z,1002.63
2017-10-20T09:45:57.263Z,1002.71
2017-10-20T09:46:57.242Z,1002.71
2017-10-20T09:47:57.220Z,1002.63
2017-10-20T09:48:57.197Z,1002.64
2017-10-20T09:49:57.175Z,1002.62
2017-10-20T09:50:57.155Z,1002.64
2017-10-20T09:51:57.136Z,1002.57
2017-10-20T09:52:57.114Z,1002.6
2017-10-20T09:53:57.087Z,1002.63
2017-10-20T09:54:57.074Z,1002.61
2017-10-20T09:55:57.043Z,1002.61
2017-10-20T09:56:57.022Z,1002.62
2017-10-20T09:57:56.999Z,1002.56
2017-10-20T09:58:56.994Z,1002.55
2017-10-20T09:59:56.957Z,1002.45
2017-10-20T10:00:56.933Z,1002.38
2017-10-20T10:01:56.911Z,1002.48
2017-10-20T10:02:56.892Z,1002.58
2017-10-20T10:03:56.866Z,1002.61
2017-10-20T10:04:56.850Z,1002.63
2017-10-20T10:05:56.823Z,1002.55
2017-10-20T10:06:56.801Z,1002.57
2017-10-20T10:07:56.782Z,1002.63
2017-10-20T10:08:56.762Z,1002.75
2017-10-20T10:09:56.734Z,1002.81
2017-10-20T10:10:56.716Z,1002.83
2017-10-20T10:11:56.692Z,1002.74
2017-10-20T10:12:56.671Z,1002.76
2017-10-20T10:13:56.656Z,1002.8
2017-10-20T10:14:56.624Z,1002.79
2017-10-20T10:15:56.603Z,1002.72
2017-10-20T10:16:56.583Z,1002.78
2017-10-20T10:17:56.557Z,1002.77
2017-10-20T10:18:56.538Z,1002.77
2017-10-20T10:19:56.516Z,1002.82
2017-10-20T10:20:56.495Z,1002.8
2017-10-20T10:21:56.472Z,1002.81
2017-10-20T10:22:56.450Z,1002.82
2017-10-20T10:23:56.429Z,1002.81
2017-10-20T10:24:56.406Z,1002.78
2017-10-20T10:25:56.387Z,1002.84
2017-10-20T10:26:56.362Z,1002.81
2017-10-20T10:27:56.341Z,1002.8
2017-10-20T10:28:56.322Z,1002.78
2017-10-20T10:29:56.298Z,1002.75
2017-10-20T10:30:56.274Z,1002.84
2017-10-20T10:31:56.254Z,1002.86
2017-10-20T10:32:56.233Z,1002.86
2017-10-20T10:33:56.220Z,1002.88
2017-10-20T10:34:56.189Z,1002.89
2017-10-20T10:35:56.174Z,1002.88
2017-10-20T10:36:56.146Z,1002.95
2017-10-20T10:37:56.123Z,1002.96
2017-10-20T10:38:56.101Z,1002.95
2017-10-20T10:39:56.083Z,1002.93
2017-10-20T10:40:56.059Z,1003.01
2017-10-20T10:41:56.039Z,1002.98
2017-10-20T10:42:56.019Z,1002.94
2017-10-20T10:43:55.994Z,1002.96
2017-10-20T10:44:55.974Z,1002.99
2017-10-20T10:45:55.949Z,1003
2017-10-20T10:46:55.931Z,1002.96
2017-10-20T10:47:55.908Z,1003.02
2017-10-20T10:48:55.884Z,1002.98
2017-10-20T10:49:55.864Z,1002.98
2017-10-20T10:50:55.844Z,1003
2017-10-20T10:51:55.819Z,1003.03
2017-10-20T10:52:55.802Z,1003.03
2017-10-20T10:53:55.777Z,1003.02
2017-10-20T10:54:55.760Z,1002.96
2017-10-20T10:55:55.735Z,1003
2017-10-20T10:56:55.714Z,1003
2017-10-20T10:57:55.691Z,1002.96
2017-10-20T10:58:55.668Z,1003.01
2017-10-20T10:59:55.649Z,1003.02
2017-10-20T11:00:55.627Z,1003
2017-10-20T11:01:55.606Z,1002.99
2017-10-20T11:02:55.587Z,1002.95
2017-10-20T11:03:55.584Z,1002.95
2017-10-20T11:04:55.559Z,1002.91
2017-10-20T11:05:55.543Z,1002.92
2017-10-20T11:06:55.494Z,1002.98
2017-10-20T11:07:55.496Z,1002.97
2017-10-20T11:08:55.464Z,1003.09
2017-10-20T11:09:55.436Z,1003.01
2017-10-20T11:10:55.407Z,1003.02
2017-10-20T11:11:55.388Z,1003
2017-10-20T11:12:55.368Z,1003.06
2017-10-20T11:13:55.347Z,1003.01
2017-10-20T11:14:55.326Z,1003.01
2017-10-20T11:15:55.309Z,1002.98
2017-10-20T11:16:55.284Z,1002.99
2017-10-20T11:17:55.282Z,1002.94
2017-10-20T11:18:55.249Z,1002.94
2017-10-20T11:19:55.228Z,1003.09
2017-10-20T11:20:55.193Z,1003.02
2017-10-20T11:21:55.179Z,1002.93
2017-10-20T11:22:55.154Z,1003.01
2017-10-20T11:23:55.135Z,1002.94
2017-10-20T11:24:55.115Z,1002.99
2017-10-20T11:25:55.093Z,1002.96
2017-10-20T11:26:55.076Z,1002.96
2017-10-20T11:27:55.053Z,1002.94
2017-10-20T11:28:55.024Z,1002.95
2017-10-20T11:29:55.005Z,1003
2017-10-20T11:30:54.975Z,1002.98
2017-10-20T11:31:54.960Z,1003
2017-10-20T11:32:54.935Z,1002.98
2017-10-20T11:33:55.162Z,1002.97
2017-10-20T11:34:54.901Z,1003
2017-10-20T11:35:54.895Z,1003.07
2017-10-20T11:36:54.849Z,1002.99
2017-10-20T11:37:54.830Z,1003.02
2017-10-20T11:38:54.803Z,1002.99
2017-10-20T11:39:54.782Z,1003.05
2017-10-20T11:40:54.760Z,1003.06
2017-10-20T11:41:54.743Z,1002.99
2017-10-20T11:42:54.717Z,1003.04
2017-10-20T11:43:54.726Z,1003.12
2017-10-20T11:44:54.672Z,1003.08
2017-10-20T11:45:54.653Z,1003.09
2017-10-20T11:46:54.635Z,1003.07
2017-10-20T11:47:54.610Z,1003.1
2017-10-20T11:48:54.597Z,1003.08
2017-10-20T11:49:54.570Z,1003.1
2017-10-20T11:50:54.550Z,1003.14
2017-10-20T11:51:54.523Z,1003.16
2017-10-20T11:52:54.816Z,1003.13
2017-10-20T11:53:54.481Z,1003.14
2017-10-20T11:54:54.490Z,1003.2
2017-10-20T11:55:54.492Z,1003.2
2017-10-20T11:56:54.411Z,1003.15
2017-10-20T11:57:54.392Z,1003.19
2017-10-20T11:58:54.371Z,1003.22
2017-10-20T11:59:54.351Z,1003.15
2017-10-20T12:00:54.330Z,1003.17
2017-10-20T12:01:54.306Z,1003.21
2017-10-20T12:02:54.290Z,1003.22
2017-10-20T12:03:54.265Z,1003.18
2017-10-20T12:04:54.241Z,1003.2
2017-10-20T12:05:54.223Z,1003.23
2017-10-20T12:06:54.201Z,1003.27
2017-10-20T12:07:54.177Z,1003.23